createdAt,value
2023-03-21T00:01:04.205Z,9.75
2023-03-21T00:04:52.275Z,8.75
2023-03-21T00:08:35.365Z,20.80
2023-03-21T00:12:17.147Z,8.85
2023-03-21T00:16:12.851Z,11.30
2023-03-21T00:20:05.694Z,12.45
2023-03-21T00:23:47.719Z,12.32
2023-03-21T00:27:50.098Z,8.25
2023-03-21T00:31:31.407Z,5.07
2023-03-21T00:35:47.970Z,7.80
2023-03-21T00:39:15.656Z,11.23
2023-03-21T00:42:57.409Z,8.88
2023-03-21T00:46:47.172Z,8.30
2023-03-21T00:50:32.363Z,10.38
2023-03-21T00:54:14.141Z,10.20
2023-03-21T00:58:01.430Z,8.40
2023-03-21T01:01:46.571Z,8.77
2023-03-21T01:05:49.457Z,9.88
2023-03-21T01:09:31.433Z,7.38
2023-03-21T01:13:15.769Z,11.40
2023-03-21T01:16:57.493Z,7.97
2023-03-21T01:20:42.156Z,4.75
2023-03-21T01:24:24.153Z,5.43
2023-03-21T01:28:06.591Z,8.43
2023-03-21T01:31:48.491Z,5.45
2023-03-21T01:35:37.442Z,4.93
2023-03-21T01:39:22.794Z,8.60
2023-03-21T01:43:16.004Z,5.97
2023-03-21T01:47:13.428Z,4.80
2023-03-21T01:50:56.349Z,3.85
2023-03-21T01:54:41.058Z,4.70
2023-03-21T01:58:23.022Z,7.63
2023-03-21T02:02:09.952Z,4.03
2023-03-21T02:06:30.360Z,5.88
2023-03-21T02:10:14.686Z,5.60
2023-03-21T02:14:06.401Z,6.18
2023-03-21T02:18:02.626Z,8.57
2023-03-21T02:22:16.012Z,7.20
2023-03-21T02:26:42.387Z,5.82
2023-03-21T02:30:50.759Z,4.53
2023-03-21T02:34:50.695Z,11.68
2023-03-21T02:38:38.751Z,9.82
2023-03-21T02:46:33.391Z,13.93
2023-03-21T02:50:27.750Z,9.93
2023-03-21T02:54:30.222Z,12.70
2023-03-21T02:58:22.720Z,12.68
2023-03-21T03:02:05.089Z,12.93
2023-03-21T03:05:58.633Z,11.77
2023-03-21T03:09:51.555Z,11.98
2023-03-21T03:13:50.999Z,13.32
2023-03-21T03:17:55.201Z,13.57
2023-03-21T03:21:44.271Z,13.88
2023-03-21T03:25:43.526Z,17.77
2023-03-21T03:29:27.540Z,14.23
2023-03-21T03:33:11.292Z,15.05
2023-03-21T03:36:57.917Z,15.98
2023-03-21T03:40:44.190Z,15.25
2023-03-21T03:44:28.379Z,10.88
2023-03-21T03:48:22.285Z,8.35
2023-03-21T03:52:21.604Z,11.32
2023-03-21T03:56:05.473Z,9.73
2023-03-21T03:59:47.643Z,9.23
2023-03-21T04:03:39.284Z,10.00
2023-03-21T04:07:29.082Z,7.60
2023-03-21T04:11:14.351Z,6.78
2023-03-21T04:15:01.950Z,6.88
2023-03-21T04:18:49.782Z,6.65
2023-03-21T04:22:33.334Z,6.90
2023-03-21T04:26:15.111Z,5.32
2023-03-21T04:29:56.883Z,4.88
2023-03-21T04:33:38.671Z,4.80
2023-03-21T04:37:23.472Z,4.78
2023-03-21T04:41:05.564Z,3.30
2023-03-21T04:44:48.122Z,2.72
2023-03-21T04:48:30.334Z,4.65
2023-03-21T04:52:12.030Z,4.22
2023-03-21T04:55:55.521Z,7.22
2023-03-21T04:59:37.692Z,4.80
2023-03-21T05:03:22.240Z,3.30
2023-03-21T05:07:04.252Z,4.45
2023-03-21T05:10:46.357Z,6.78
2023-03-21T05:14:28.492Z,5.15
2023-03-21T05:18:13.226Z,8.32
2023-03-21T05:21:54.946Z,7.53
2023-03-21T05:25:38.568Z,9.18
2023-03-21T05:29:21.635Z,14.65
2023-03-21T05:33:04.209Z,12.93
2023-03-21T05:36:45.906Z,10.77
2023-03-21T05:40:27.767Z,8.60
2023-03-21T05:44:09.476Z,17.13
2023-03-21T05:47:51.610Z,12.20
2023-03-21T05:51:33.348Z,16.52
2023-03-21T05:55:15.299Z,20.52
2023-03-21T05:58:57.014Z,14.90
2023-03-21T06:02:39.930Z,12.98
2023-03-21T06:06:21.692Z,14.48
2023-03-21T06:10:04.777Z,13.13
2023-03-21T06:13:47.684Z,12.18
2023-03-21T06:17:29.385Z,17.63
2023-03-21T06:21:11.129Z,18.38
2023-03-21T06:24:53.067Z,13.93
2023-03-21T06:28:34.934Z,6.30
2023-03-21T06:32:16.666Z,14.00
2023-03-21T06:35:59.247Z,15.65
2023-03-21T06:39:41.386Z,14.85
2023-03-21T06:43:23.144Z,15.43
2023-03-21T06:47:04.970Z,20.85
2023-03-21T06:50:52.438Z,14.80
2023-03-21T06:54:34.211Z,19.45
2023-03-21T06:58:16.047Z,14.40
2023-03-21T07:01:57.881Z,19.42
2023-03-21T07:05:40.763Z,18.77
2023-03-21T07:09:24.682Z,15.15
2023-03-21T07:13:06.483Z,15.85
2023-03-21T07:16:48.250Z,19.40
2023-03-21T07:20:30.981Z,14.57
2023-03-21T07:24:12.702Z,11.02
2023-03-21T07:27:54.500Z,12.80
2023-03-21T07:31:36.728Z,16.73
2023-03-21T07:35:18.719Z,11.55
2023-03-21T07:39:00.666Z,7.60
2023-03-21T07:42:42.696Z,11.70
2023-03-21T07:46:24.712Z,12.82
2023-03-21T07:50:06.958Z,6.20
2023-03-21T07:53:49.435Z,8.48
2023-03-21T07:57:31.390Z,8.82
2023-03-21T08:01:13.085Z,8.10
2023-03-21T08:04:54.866Z,8.70
2023-03-21T08:08:36.706Z,7.45
2023-03-21T08:12:18.473Z,9.80
2023-03-21T08:16:00.209Z,12.35
2023-03-21T08:19:42.130Z,9.73
2023-03-21T08:23:24.927Z,12.73
2023-03-21T08:27:06.720Z,8.55
2023-03-21T08:30:48.824Z,12.55
2023-03-21T08:34:30.576Z,11.35
2023-03-21T08:38:12.275Z,11.95
2023-03-21T08:41:54.637Z,12.23
2023-03-21T08:45:37.288Z,14.98
2023-03-21T08:49:19.328Z,9.60
2023-03-21T08:53:01.009Z,12.63
2023-03-21T08:56:42.701Z,10.50
2023-03-21T09:00:24.900Z,12.13
2023-03-21T09:04:10.639Z,8.15
2023-03-21T09:07:52.916Z,11.18
2023-03-21T09:11:35.210Z,9.98
2023-03-21T09:15:18.112Z,8.60
2023-03-21T09:18:59.993Z,6.88
2023-03-21T09:22:42.842Z,5.25
2023-03-21T09:26:26.414Z,10.32
2023-03-21T09:30:09.706Z,2.75
2023-03-21T09:33:52.820Z,5.95
2023-03-21T09:37:38.195Z,10.98
2023-03-21T09:41:44.107Z,4.35
2023-03-21T09:45:35.176Z,7.60
2023-03-21T09:49:25.484Z,5.55
2023-03-21T09:53:13.909Z,5.15
2023-03-21T09:56:59.325Z,6.07
2023-03-21T10:00:46.010Z,4.72
2023-03-21T10:04:28.989Z,12.00
2023-03-21T10:08:27.252Z,8.82
2023-03-21T10:12:30.537Z,7.45
2023-03-21T10:16:19.620Z,3.58
2023-03-21T10:20:18.340Z,8.18
2023-03-21T10:24:00.572Z,8.80
2023-03-21T10:27:42.863Z,5.90
2023-03-21T10:31:26.466Z,11.88
2023-03-21T10:35:13.170Z,7.68
2023-03-21T10:39:07.878Z,5.07
2023-03-21T10:42:49.581Z,4.95
2023-03-21T10:46:32.995Z,8.00
2023-03-21T10:50:26.789Z,3.72
2023-03-21T10:54:13.833Z,5.65
2023-03-21T10:58:03.862Z,3.92
2023-03-21T11:01:50.434Z,2.65
2023-03-21T11:05:40.977Z,4.10
2023-03-21T11:09:25.625Z,4.50
2023-03-21T11:13:17.120Z,5.63
2023-03-21T11:16:59.143Z,3.75
2023-03-21T11:20:49.731Z,5.50
2023-03-21T11:24:33.124Z,6.85
2023-03-21T11:28:21.718Z,3.25
2023-03-21T11:32:20.982Z,2.90
2023-03-21T11:36:33.868Z,2.05
2023-03-21T11:40:24.484Z,2.20
2023-03-21T11:44:06.271Z,3.75
2023-03-21T11:47:50.649Z,1.33
2023-03-21T11:51:59.330Z,1.67
2023-03-21T11:55:46.369Z,6.68
2023-03-21T11:59:41.510Z,1.00
2023-03-21T12:03:55.359Z,1.23
2023-03-21T12:08:00.917Z,3.10
2023-03-21T12:12:07.460Z,6.47
2023-03-21T12:16:07.530Z,3.92
2023-03-21T12:20:13.856Z,3.70
2023-03-21T12:24:12.809Z,3.00
2023-03-21T12:28:06.716Z,3.92
2023-03-21T12:32:07.564Z,2.35
2023-03-21T12:36:11.513Z,5.57
2023-03-21T12:40:01.697Z,2.75
2023-03-21T12:44:16.377Z,3.22
2023-03-21T12:48:21.073Z,3.35
2023-03-21T12:52:19.252Z,5.47
2023-03-21T12:56:04.431Z,5.45
2023-03-21T13:00:11.864Z,8.95
2023-03-21T13:04:30.654Z,4.50
2023-03-21T13:08:18.553Z,6.15
2023-03-21T13:12:19.551Z,8.73
2023-03-21T13:16:23.126Z,7.43
2023-03-21T13:20:09.402Z,5.13
2023-03-21T13:24:04.158Z,5.80
2023-03-21T13:27:55.492Z,3.75
2023-03-21T13:31:50.939Z,7.93
2023-03-21T13:35:39.170Z,6.10
2023-03-21T13:39:27.238Z,7.55
2023-03-21T13:43:35.463Z,5.25
2023-03-21T13:47:38.999Z,3.40
2023-03-21T13:51:52.288Z,3.42
2023-03-21T13:55:45.835Z,3.60
2023-03-21T13:59:41.631Z,4.50
2023-03-21T14:03:24.654Z,7.80
2023-03-21T14:07:11.327Z,8.88
2023-03-21T14:10:57.817Z,9.70
2023-03-21T14:14:50.620Z,11.98
2023-03-21T14:18:53.565Z,14.10
2023-03-21T14:22:36.225Z,9.85
2023-03-21T14:26:19.544Z,12.98
2023-03-21T14:30:03.264Z,7.78
2023-03-21T14:33:56.110Z,11.38
2023-03-21T14:37:41.124Z,15.25
2023-03-21T14:41:26.454Z,9.55
2023-03-21T14:45:20.251Z,10.57
2023-03-21T14:49:25.690Z,14.05
2023-03-21T14:53:15.845Z,10.13
2023-03-21T14:57:01.454Z,9.68
2023-03-21T15:00:43.559Z,13.88
2023-03-21T15:04:26.568Z,12.27
2023-03-21T15:08:17.600Z,16.10
2023-03-21T15:12:00.619Z,18.13
2023-03-21T15:15:43.595Z,17.10
2023-03-21T15:19:33.908Z,10.98
2023-03-21T15:23:30.402Z,12.75
2023-03-21T15:27:18.816Z,10.05
2023-03-21T15:31:01.573Z,14.15
2023-03-21T15:34:44.072Z,16.38
2023-03-21T15:38:42.511Z,12.73
2023-03-21T15:46:41.979Z,9.82
2023-03-21T15:50:34.895Z,12.40
2023-03-21T15:54:27.180Z,18.40
2023-03-21T15:58:17.010Z,9.27
2023-03-21T16:01:59.136Z,8.55
2023-03-21T16:05:41.409Z,12.82
2023-03-21T16:09:26.073Z,17.20
2023-03-21T16:13:10.863Z,13.25
2023-03-21T16:16:53.012Z,15.63
2023-03-21T16:20:42.460Z,12.30
2023-03-21T16:24:24.269Z,13.50
2023-03-21T16:28:19.664Z,14.68
2023-03-21T16:32:06.071Z,16.58
2023-03-21T16:35:48.067Z,12.68
2023-03-21T16:39:29.775Z,12.38
2023-03-21T16:43:11.694Z,14.05
2023-03-21T16:46:53.465Z,13.77
2023-03-21T16:50:47.253Z,16.40
2023-03-21T16:54:28.965Z,10.80
2023-03-21T16:58:15.046Z,12.55
2023-03-21T17:01:56.856Z,13.85
2023-03-21T17:05:38.698Z,14.18
2023-03-21T17:09:26.918Z,12.63
2023-03-21T17:13:08.668Z,10.98
2023-03-21T17:16:50.492Z,11.30
2023-03-21T17:20:34.953Z,14.85
2023-03-21T17:24:17.685Z,13.82
2023-03-21T17:27:59.810Z,16.13
2023-03-21T17:31:42.403Z,12.38
2023-03-21T17:35:25.690Z,14.73
2023-03-21T17:39:09.528Z,11.88
2023-03-21T17:42:52.456Z,14.27
2023-03-21T17:46:37.160Z,16.90
2023-03-21T17:50:27.892Z,15.77
2023-03-21T17:54:10.112Z,12.30
2023-03-21T17:57:52.113Z,13.48
2023-03-21T18:01:35.443Z,20.23
2023-03-21T18:05:17.769Z,27.30
2023-03-21T18:09:00.680Z,19.85
2023-03-21T18:12:43.938Z,16.73
2023-03-21T18:16:25.827Z,15.82
2023-03-21T18:20:10.357Z,20.52
2023-03-21T18:23:52.213Z,18.00
2023-03-21T18:27:35.362Z,22.50
2023-03-21T18:31:20.988Z,14.48
2023-03-21T18:35:04.644Z,13.75
2023-03-21T18:38:47.158Z,18.13
2023-03-21T18:42:30.809Z,19.90
2023-03-21T18:46:12.984Z,20.45
2023-03-21T18:50:13.045Z,16.80
2023-03-21T18:53:55.930Z,14.60
2023-03-21T18:57:38.921Z,18.60
2023-03-21T19:01:21.117Z,16.92
2023-03-21T19:05:04.520Z,19.55
2023-03-21T19:08:46.454Z,15.93
2023-03-21T19:12:28.675Z,17.92
2023-03-21T19:16:11.473Z,17.20
2023-03-21T19:19:53.756Z,12.85
2023-03-21T19:23:59.333Z,17.17
2023-03-21T19:27:38.666Z,15.68
2023-03-21T19:31:21.328Z,20.13
2023-03-21T19:35:03.791Z,18.85
2023-03-21T19:38:45.627Z,22.05
2023-03-21T19:42:29.221Z,17.83
2023-03-21T19:46:14.814Z,24.67
2023-03-21T19:53:59.960Z,21.60
2023-03-21T19:57:41.871Z,24.27
2023-03-21T20:01:24.818Z,18.02
2023-03-21T20:05:07.810Z,25.05
2023-03-21T20:09:42.908Z,21.50
2023-03-21T20:12:54.628Z,21.55
2023-03-21T20:16:38.223Z,16.48
2023-03-21T20:20:20.076Z,18.95
2023-03-21T20:24:02.175Z,18.30
2023-03-21T20:27:44.900Z,20.30
2023-03-21T20:31:27.120Z,15.55
2023-03-21T20:35:20.740Z,21.63
2023-03-21T20:39:09.293Z,16.00
2023-03-21T20:42:51.916Z,17.38
2023-03-21T20:46:37.603Z,18.92
2023-03-21T20:50:22.065Z,21.27
2023-03-21T20:54:04.725Z,18.55
2023-03-21T20:57:48.643Z,20.23
2023-03-21T21:01:30.548Z,19.63
2023-03-21T21:05:33.089Z,22.73
2023-03-21T21:09:16.482Z,22.42
2023-03-21T21:12:58.324Z,17.05
2023-03-21T21:16:40.409Z,21.50
2023-03-21T21:20:22.907Z,14.68
2023-03-21T21:24:07.469Z,15.48
2023-03-21T21:27:49.636Z,24.10
2023-03-21T21:31:34.973Z,15.30
2023-03-21T21:35:18.045Z,21.90
2023-03-21T21:39:00.919Z,20.67
2023-03-21T21:42:44.173Z,18.08
2023-03-21T21:46:26.318Z,26.20
2023-03-21T21:50:08.391Z,20.30
2023-03-21T21:53:50.127Z,25.17
2023-03-21T21:57:34.424Z,21.58
2023-03-21T22:01:17.427Z,27.67
2023-03-21T22:04:59.192Z,28.38
2023-03-21T22:08:47.004Z,23.85
2023-03-21T22:12:29.018Z,17.67
2023-03-21T22:16:11.688Z,19.35
2023-03-21T22:20:05.223Z,27.80
2023-03-21T22:23:47.989Z,22.30
2023-03-21T22:27:29.749Z,19.42
2023-03-21T22:31:15.603Z,23.58
2023-03-21T22:34:58.687Z,21.55
2023-03-21T22:38:41.875Z,20.10
2023-03-21T22:42:23.713Z,24.42
2023-03-21T22:46:06.203Z,19.80
2023-03-21T22:49:48.004Z,21.98
2023-03-21T22:53:30.342Z,24.98
2023-03-21T22:57:13.644Z,27.55
2023-03-21T23:01:01.308Z,27.83
2023-03-21T23:04:43.072Z,22.92
2023-03-21T23:08:24.866Z,24.42
2023-03-21T23:12:06.738Z,25.23
2023-03-21T23:15:48.479Z,23.83
2023-03-21T23:19:30.724Z,23.55
2023-03-21T23:23:12.432Z,16.35
2023-03-21T23:26:54.290Z,18.77
2023-03-21T23:30:39.110Z,14.60
2023-03-21T23:34:21.131Z,18.75
2023-03-21T23:38:03.053Z,27.38
2023-03-21T23:41:45.326Z,25.42
2023-03-21T23:45:27.108Z,16.13
2023-03-21T23:49:09.753Z,27.58
2023-03-21T23:52:51.495Z,23.52
2023-03-21T23:56:33.323Z,21.83
